CheckWX is a tool to help pilots better visualize weather data.  It is not intended as a substitute for an official pre-flight weather briefing.

00:11:29 UTC

KISM TAF
Kissimmee Gateway Airport
Orlando, Florida, USA
KISM 260533Z 2606/2706 09011KT P6SM VCSH BKN025 OVC040 FM260900 08007KT P6SM VCSH BKN010 BKN025 FM261400 18007KT P6SM VCSH SCT030 BKN120 FM261700 21010KT P6SM VCSH SCT040 OVC250 FM270000 17006KT P6SM SCT040 OVC250

May-26@
06:00 UTC

May-26 @ 06:00 UTC

May-26@
09:00 UTC

May-26 @ 09:00 UTC

TAF KISM 260533Z 2606/2706 09011KT P6SM VCSH BKN025 OVC040

Expired

Wind
  • 090° at 11 KTS
Conditions
Area Showers
Cloud Levels
  • Broken at 2,500' AGL
  • Overcast at 4,000' AGL

May-26@
09:00 UTC

May-26 @ 09:00 UTC

May-26@
14:00 UTC

May-26 @ 14:00 UTC

FM260900 08007KT P6SM VCSH BKN010 BKN025

Expired

Wind
  • 080° at 7 KTS
Conditions
Area Showers
Cloud Levels
  • Broken at 1,000' AGL
  • Broken at 2,500' AGL

May-26@
14:00 UTC

May-26 @ 14:00 UTC

May-26@
17:00 UTC

May-26 @ 17:00 UTC

FM261400 18007KT P6SM VCSH SCT030 BKN120

Expired

Wind
  • 180° at 7 KTS
Conditions
Area Showers
Cloud Levels
  • Scattered at 3,000' AGL
  • Broken at 12,000' AGL

May-26@
17:00 UTC

May-26 @ 17:00 UTC

May-27@
00:00 UTC

May-27 @ 00:00 UTC

FM261700 21010KT P6SM VCSH SCT040 OVC250

Expired

Wind
  • 210° at 10 KTS
Conditions
Area Showers
Cloud Levels
  • Scattered at 4,000' AGL
  • Overcast at 25,000' AGL

May-27@
00:00 UTC

May-27 @ 00:00 UTC

May-27@
06:00 UTC

May-27 @ 06:00 UTC

FM270000 17006KT P6SM SCT040 OVC250

From

From Standard forecast or significant change

Wind
  • 170° at 6 KTS
Cloud Levels
  • Scattered at 4,000' AGL
  • Overcast at 25,000' AGL